< < Back
Terminal Aerodrome Forecast


Current Version              Previous Versions:   1  2  3  4  5  6  7  8  9  

Terminal Aerodrome Forecast

473
FTUS42 KGSP 232320
TAFHKY
TAF
KHKY 232320Z 2400/2424 17004KT P6SM SKC
     FM240700 00000KT P6SM FEW110
     FM241600 18007KT P6SM FEW150=

Latest METAR

041
SAUS70 KWBC 240300 RRF
MTRHKY
METAR KHKY 240253Z AUTO 00000KT 10SM CLR 17/07 A3037 RMK AO2 SLP264
T01720067 53005


USA.gov is the U.S. government's official web portal to all federal, state and local government web resources and services.